sensor_id;sensor_type;location;lat;lon;timestamp;temperature;humidity
17740;DHT22;8990;33.226;-97.150;2022-10-03T00:02:34;26.70;85.20
17740;DHT22;8990;33.226;-97.150;2022-10-03T00:05:19;26.60;85.60
17740;DHT22;8990;33.226;-97.150;2022-10-03T00:08:07;26.50;86.00
17740;DHT22;8990;33.226;-97.150;2022-10-03T00:10:50;26.50;87.80
17740;DHT22;8990;33.226;-97.150;2022-10-03T00:13:26;26.30;88.70
17740;DHT22;8990;33.226;-97.150;2022-10-03T00:16:11;26.30;88.40
17740;DHT22;8990;33.226;-97.150;2022-10-03T00:18:52;26.10;89.70
17740;DHT22;8990;33.226;-97.150;2022-10-03T00:21:40;25.90;90.10
17740;DHT22;8990;33.226;-97.150;2022-10-03T00:24:22;25.80;90.50
17740;DHT22;8990;33.226;-97.150;2022-10-03T00:26:58;25.60;90.90
17740;DHT22;8990;33.226;-97.150;2022-10-03T00:29:45;25.30;91.30
17740;DHT22;8990;33.226;-97.150;2022-10-03T00:32:31;25.10;91.60
17740;DHT22;8990;33.226;-97.150;2022-10-03T00:35:17;24.90;91.80
17740;DHT22;8990;33.226;-97.150;2022-10-03T00:38:02;24.70;92.30
17740;DHT22;8990;33.226;-97.150;2022-10-03T00:40:55;24.50;92.20
17740;DHT22;8990;33.226;-97.150;2022-10-03T00:47:29;24.00;92.70
17740;DHT22;8990;33.226;-97.150;2022-10-03T00:50:29;23.80;93.00
17740;DHT22;8990;33.226;-97.150;2022-10-03T00:53:25;23.60;93.30
17740;DHT22;8990;33.226;-97.150;2022-10-03T00:56:06;23.40;93.50
17740;DHT22;8990;33.226;-97.150;2022-10-03T00:58:54;23.30;93.90
17740;DHT22;8990;33.226;-97.150;2022-10-03T01:01:36;23.20;94.10
17740;DHT22;8990;33.226;-97.150;2022-10-03T01:04:32;23.00;94.40
17740;DHT22;8990;33.226;-97.150;2022-10-03T01:07:12;22.90;94.60
17740;DHT22;8990;33.226;-97.150;2022-10-03T01:09:54;22.80;94.80
17740;DHT22;8990;33.226;-97.150;2022-10-03T01:12:47;22.70;95.40
17740;DHT22;8990;33.226;-97.150;2022-10-03T01:15:27;22.50;95.90
17740;DHT22;8990;33.226;-97.150;2022-10-03T01:21:04;22.40;95.70
17740;DHT22;8990;33.226;-97.150;2022-10-03T01:24:29;22.20;95.80
17740;DHT22;8990;33.226;-97.150;2022-10-03T01:27:04;22.00;96.10
17740;DHT22;8990;33.226;-97.150;2022-10-03T01:29:53;22.00;96.30
17740;DHT22;8990;33.226;-97.150;2022-10-03T01:32:47;21.90;96.40
17740;DHT22;8990;33.226;-97.150;2022-10-03T01:35:28;21.70;96.70
17740;DHT22;8990;33.226;-97.150;2022-10-03T01:38:06;21.60;96.80
17740;DHT22;8990;33.226;-97.150;2022-10-03T01:40:41;21.60;96.90
17740;DHT22;8990;33.226;-97.150;2022-10-03T01:43:17;21.50;97.20
17740;DHT22;8990;33.226;-97.150;2022-10-03T01:45:58;21.50;97.40
17740;DHT22;8990;33.226;-97.150;2022-10-03T01:48:40;21.40;97.60
17740;DHT22;8990;33.226;-97.150;2022-10-03T01:51:13;21.30;97.80
17740;DHT22;8990;33.226;-97.150;2022-10-03T01:53:54;21.30;97.70
17740;DHT22;8990;33.226;-97.150;2022-10-03T01:56:31;21.20;98.20
17740;DHT22;8990;33.226;-97.150;2022-10-03T01:59:06;21.10;98.00
17740;DHT22;8990;33.226;-97.150;2022-10-03T02:01:46;21.00;97.90
17740;DHT22;8990;33.226;-97.150;2022-10-03T02:04:30;20.90;98.50
17740;DHT22;8990;33.226;-97.150;2022-10-03T02:07:06;20.80;98.20
17740;DHT22;8990;33.226;-97.150;2022-10-03T02:09:47;20.80;98.00
17740;DHT22;8990;33.226;-97.150;2022-10-03T02:12:26;20.70;98.30
17740;DHT22;8990;33.226;-97.150;2022-10-03T02:15:00;20.60;98.40
17740;DHT22;8990;33.226;-97.150;2022-10-03T02:17:45;20.50;98.60
17740;DHT22;8990;33.226;-97.150;2022-10-03T02:20:24;20.50;99.00
17740;DHT22;8990;33.226;-97.150;2022-10-03T02:22:56;20.40;98.70
17740;DHT22;8990;33.226;-97.150;2022-10-03T02:25:31;20.40;98.80
17740;DHT22;8990;33.226;-97.150;2022-10-03T02:28:30;20.30;99.10
17740;DHT22;8990;33.226;-97.150;2022-10-03T02:34:40;20.10;99.40
17740;DHT22;8990;33.226;-97.150;2022-10-03T02:37:43;20.00;99.90
17740;DHT22;8990;33.226;-97.150;2022-10-03T02:44:12;20.00;99.90
17740;DHT22;8990;33.226;-97.150;2022-10-03T02:53:26;19.80;99.80
17740;DHT22;8990;33.226;-97.150;2022-10-03T02:59:38;19.60;99.90
17740;DHT22;8990;33.226;-97.150;2022-10-03T03:02:39;19.60;99.90
17740;DHT22;8990;33.226;-97.150;2022-10-03T03:05:28;19.60;99.90
17740;DHT22;8990;33.226;-97.150;2022-10-03T03:11:43;19.30;99.90
17740;DHT22;8990;33.226;-97.150;2022-10-03T03:14:49;19.20;99.90
17740;DHT22;8990;33.226;-97.150;2022-10-03T03:17:29;19.10;99.90
17740;DHT22;8990;33.226;-97.150;2022-10-03T03:20:16;19.10;99.90
17740;DHT22;8990;33.226;-97.150;2022-10-03T03:29:02;19.00;99.90
17740;DHT22;8990;33.226;-97.150;2022-10-03T03:31:38;18.90;99.90
17740;DHT22;8990;33.226;-97.150;2022-10-03T03:34:13;18.90;99.90
17740;DHT22;8990;33.226;-97.150;2022-10-03T03:36:50;18.80;99.90
17740;DHT22;8990;33.226;-97.150;2022-10-03T03:39:38;18.70;99.90
17740;DHT22;8990;33.226;-97.150;2022-10-03T03:42:30;18.60;99.90
17740;DHT22;8990;33.226;-97.150;2022-10-03T03:45:27;18.60;99.90
17740;DHT22;8990;33.226;-97.150;2022-10-03T03:48:31;18.50;99.90
17740;DHT22;8990;33.226;-97.150;2022-10-03T03:51:16;18.50;99.90
17740;DHT22;8990;33.226;-97.150;2022-10-03T03:57:09;18.20;99.90
17740;DHT22;8990;33.226;-97.150;2022-10-03T04:00:02;18.20;99.90
17740;DHT22;8990;33.226;-97.150;2022-10-03T04:02:45;18.20;99.90
17740;DHT22;8990;33.226;-97.150;2022-10-03T04:05:29;18.20;99.90
17740;DHT22;8990;33.226;-97.150;2022-10-03T04:08:19;18.00;99.90
17740;DHT22;8990;33.226;-97.150;2022-10-03T04:11:01;18.00;99.90
17740;DHT22;8990;33.226;-97.150;2022-10-03T04:14:06;17.90;99.90
17740;DHT22;8990;33.226;-97.150;2022-10-03T04:16:57;17.90;99.90
17740;DHT22;8990;33.226;-97.150;2022-10-03T04:19:59;17.90;99.90
17740;DHT22;8990;33.226;-97.150;2022-10-03T04:22:45;17.80;99.90
17740;DHT22;8990;33.226;-97.150;2022-10-03T04:25:26;17.70;99.90
17740;DHT22;8990;33.226;-97.150;2022-10-03T04:28:17;17.70;99.90
17740;DHT22;8990;33.226;-97.150;2022-10-03T04:31:07;17.70;99.90
17740;DHT22;8990;33.226;-97.150;2022-10-03T04:33:51;17.60;99.90
17740;DHT22;8990;33.226;-97.150;2022-10-03T04:36:53;17.60;99.90
17740;DHT22;8990;33.226;-97.150;2022-10-03T04:39:33;17.60;99.90
17740;DHT22;8990;33.226;-97.150;2022-10-03T04:42:12;17.50;99.90
17740;DHT22;8990;33.226;-97.150;2022-10-03T04:45:02;17.40;99.90
17740;DHT22;8990;33.226;-97.150;2022-10-03T04:47:40;17.30;99.90
17740;DHT22;8990;33.226;-97.150;2022-10-03T04:50:27;17.30;99.90
17740;DHT22;8990;33.226;-97.150;2022-10-03T04:53:22;17.20;99.90
17740;DHT22;8990;33.226;-97.150;2022-10-03T04:55:59;17.10;99.90
17740;DHT22;8990;33.226;-97.150;2022-10-03T04:58:38;17.10;99.90
17740;DHT22;8990;33.226;-97.150;2022-10-03T05:01:14;17.00;99.90
17740;DHT22;8990;33.226;-97.150;2022-10-03T05:03:58;17.00;99.90
17740;DHT22;8990;33.226;-97.150;2022-10-03T05:06:38;17.00;99.90
17740;DHT22;8990;33.226;-97.150;2022-10-03T05:09:26;17.00;99.90
17740;DHT22;8990;33.226;-97.150;2022-10-03T05:12:09;17.00;99.90
17740;DHT22;8990;33.226;-97.150;2022-10-03T05:15:12;17.00;99.90
17740;DHT22;8990;33.226;-97.150;2022-10-03T05:17:47;17.00;99.90
17740;DHT22;8990;33.226;-97.150;2022-10-03T05:20:31;17.00;99.90
17740;DHT22;8990;33.226;-97.150;2022-10-03T05:23:16;16.90;99.90
17740;DHT22;8990;33.226;-97.150;2022-10-03T05:25:52;16.90;99.90
17740;DHT22;8990;33.226;-97.150;2022-10-03T05:28:31;16.80;99.90
17740;DHT22;8990;33.226;-97.150;2022-10-03T05:31:11;16.80;99.90
17740;DHT22;8990;33.226;-97.150;2022-10-03T05:33:50;16.70;99.90
17740;DHT22;8990;33.226;-97.150;2022-10-03T05:36:29;16.70;99.90
17740;DHT22;8990;33.226;-97.150;2022-10-03T05:42:03;16.60;99.90
17740;DHT22;8990;33.226;-97.150;2022-10-03T05:44:41;16.60;99.90
17740;DHT22;8990;33.226;-97.150;2022-10-03T05:47:15;16.60;99.90
17740;DHT22;8990;33.226;-97.150;2022-10-03T05:53:29;16.30;99.90
17740;DHT22;8990;33.226;-97.150;2022-10-03T05:56:09;16.40;99.90
17740;DHT22;8990;33.226;-97.150;2022-10-03T05:59:04;16.40;99.90
17740;DHT22;8990;33.226;-97.150;2022-10-03T06:01:59;16.30;99.90
17740;DHT22;8990;33.226;-97.150;2022-10-03T06:07:44;16.20;99.90
17740;DHT22;8990;33.226;-97.150;2022-10-03T06:10:44;16.10;99.90
17740;DHT22;8990;33.226;-97.150;2022-10-03T06:13:22;16.10;99.90
17740;DHT22;8990;33.226;-97.150;2022-10-03T06:16:00;16.00;99.90
17740;DHT22;8990;33.226;-97.150;2022-10-03T06:18:50;16.00;99.90
17740;DHT22;8990;33.226;-97.150;2022-10-03T06:31:03;15.90;99.90
17740;DHT22;8990;33.226;-97.150;2022-10-03T06:34:01;15.90;99.90
17740;DHT22;8990;33.226;-97.150;2022-10-03T06:36:49;15.80;99.90
17740;DHT22;8990;33.226;-97.150;2022-10-03T06:39:54;15.80;99.90
17740;DHT22;8990;33.226;-97.150;2022-10-03T06:42:54;15.80;99.90
17740;DHT22;8990;33.226;-97.150;2022-10-03T06:45:58;15.90;99.90
17740;DHT22;8990;33.226;-97.150;2022-10-03T06:49:00;15.80;99.90
17740;DHT22;8990;33.226;-97.150;2022-10-03T06:51:49;15.80;99.90
17740;DHT22;8990;33.226;-97.150;2022-10-03T06:54:56;15.70;99.90
17740;DHT22;8990;33.226;-97.150;2022-10-03T06:57:59;15.60;99.90
17740;DHT22;8990;33.226;-97.150;2022-10-03T07:03:58;15.50;99.90
17740;DHT22;8990;33.226;-97.150;2022-10-03T07:06:53;15.50;99.90
17740;DHT22;8990;33.226;-97.150;2022-10-03T07:09:58;15.40;99.90
17740;DHT22;8990;33.226;-97.150;2022-10-03T07:12:58;15.30;99.90
17740;DHT22;8990;33.226;-97.150;2022-10-03T07:25:33;15.20;99.90
17740;DHT22;8990;33.226;-97.150;2022-10-03T07:31:20;15.10;99.90
17740;DHT22;8990;33.226;-97.150;2022-10-03T07:34:23;15.10;99.90
17740;DHT22;8990;33.226;-97.150;2022-10-03T07:37:13;15.10;99.90
17740;DHT22;8990;33.226;-97.150;2022-10-03T07:40:44;15.00;99.90
17740;DHT22;8990;33.226;-97.150;2022-10-03T07:43:47;14.80;99.90
17740;DHT22;8990;33.226;-97.150;2022-10-03T07:50:02;14.70;99.90
17740;DHT22;8990;33.226;-97.150;2022-10-03T07:53:04;14.70;99.90
17740;DHT22;8990;33.226;-97.150;2022-10-03T07:59:09;14.80;99.90
17740;DHT22;8990;33.226;-97.150;2022-10-03T08:01:49;14.80;99.90
17740;DHT22;8990;33.226;-97.150;2022-10-03T08:07:45;14.70;99.90
17740;DHT22;8990;33.226;-97.150;2022-10-03T08:10:43;14.80;99.90
17740;DHT22;8990;33.226;-97.150;2022-10-03T08:13:32;14.70;99.90
17740;DHT22;8990;33.226;-97.150;2022-10-03T08:16:21;14.70;99.90
17740;DHT22;8990;33.226;-97.150;2022-10-03T08:19:11;14.60;99.90
17740;DHT22;8990;33.226;-97.150;2022-10-03T08:22:05;14.70;99.90
17740;DHT22;8990;33.226;-97.150;2022-10-03T08:28:32;14.70;99.90
17740;DHT22;8990;33.226;-97.150;2022-10-03T08:34:19;14.60;99.90
17740;DHT22;8990;33.226;-97.150;2022-10-03T08:40:02;14.50;99.90
17740;DHT22;8990;33.226;-97.150;2022-10-03T08:43:04;14.40;99.90
17740;DHT22;8990;33.226;-97.150;2022-10-03T08:48:57;14.40;99.90
17740;DHT22;8990;33.226;-97.150;2022-10-03T08:54:54;14.20;99.90
17740;DHT22;8990;33.226;-97.150;2022-10-03T08:57:54;14.20;99.90
17740;DHT22;8990;33.226;-97.150;2022-10-03T09:00:35;14.20;99.90
17740;DHT22;8990;33.226;-97.150;2022-10-03T09:03:40;14.20;99.90
17740;DHT22;8990;33.226;-97.150;2022-10-03T09:06:49;14.20;99.90
17740;DHT22;8990;33.226;-97.150;2022-10-03T09:09:49;14.20;99.90
17740;DHT22;8990;33.226;-97.150;2022-10-03T09:12:38;14.00;99.90
17740;DHT22;8990;33.226;-97.150;2022-10-03T09:18:35;14.00;99.90
17740;DHT22;8990;33.226;-97.150;2022-10-03T09:21:31;14.00;99.90
17740;DHT22;8990;33.226;-97.150;2022-10-03T09:24:29;13.90;99.90
17740;DHT22;8990;33.226;-97.150;2022-10-03T09:27:32;13.90;99.90
17740;DHT22;8990;33.226;-97.150;2022-10-03T09:30:24;13.90;99.90
17740;DHT22;8990;33.226;-97.150;2022-10-03T09:33:21;13.90;99.90
17740;DHT22;8990;33.226;-97.150;2022-10-03T09:36:24;13.80;99.90
17740;DHT22;8990;33.226;-97.150;2022-10-03T09:39:19;13.80;99.90
17740;DHT22;8990;33.226;-97.150;2022-10-03T09:42:28;13.80;99.90
17740;DHT22;8990;33.226;-97.150;2022-10-03T09:45:15;13.70;99.90
17740;DHT22;8990;33.226;-97.150;2022-10-03T09:48:16;13.70;99.90
17740;DHT22;8990;33.226;-97.150;2022-10-03T09:54:22;13.80;99.90
17740;DHT22;8990;33.226;-97.150;2022-10-03T10:00:36;13.70;99.90
17740;DHT22;8990;33.226;-97.150;2022-10-03T10:06:31;13.50;99.90
17740;DHT22;8990;33.226;-97.150;2022-10-03T10:09:36;13.50;99.90
17740;DHT22;8990;33.226;-97.150;2022-10-03T10:12:39;13.60;99.90
17740;DHT22;8990;33.226;-97.150;2022-10-03T10:15:52;13.40;99.90
17740;DHT22;8990;33.226;-97.150;2022-10-03T10:18:45;13.40;99.90
17740;DHT22;8990;33.226;-97.150;2022-10-03T10:21:43;13.40;99.90
17740;DHT22;8990;33.226;-97.150;2022-10-03T10:27:47;13.40;99.90
17740;DHT22;8990;33.226;-97.150;2022-10-03T10:30:42;13.40;99.90
17740;DHT22;8990;33.226;-97.150;2022-10-03T10:33:43;13.40;99.90
17740;DHT22;8990;33.226;-97.150;2022-10-03T10:36:51;13.40;99.90
17740;DHT22;8990;33.226;-97.150;2022-10-03T10:39:51;13.40;99.90
17740;DHT22;8990;33.226;-97.150;2022-10-03T10:42:54;13.40;99.90
17740;DHT22;8990;33.226;-97.150;2022-10-03T10:52:16;13.20;99.90
17740;DHT22;8990;33.226;-97.150;2022-10-03T10:58:26;13.30;99.90
17740;DHT22;8990;33.226;-97.150;2022-10-03T11:07:33;13.30;99.90
17740;DHT22;8990;33.226;-97.150;2022-10-03T11:10:35;13.30;99.90
17740;DHT22;8990;33.226;-97.150;2022-10-03T11:17:06;13.30;99.90
17740;DHT22;8990;33.226;-97.150;2022-10-03T11:20:08;13.20;99.90
17740;DHT22;8990;33.226;-97.150;2022-10-03T11:29:27;13.10;99.90
17740;DHT22;8990;33.226;-97.150;2022-10-03T11:38:26;13.00;99.90
17740;DHT22;8990;33.226;-97.150;2022-10-03T11:41:02;13.00;99.90
17740;DHT22;8990;33.226;-97.150;2022-10-03T11:43:57;13.00;99.90
17740;DHT22;8990;33.226;-97.150;2022-10-03T11:46:46;13.00;99.90
17740;DHT22;8990;33.226;-97.150;2022-10-03T11:49:51;13.00;99.90
17740;DHT22;8990;33.226;-97.150;2022-10-03T11:52:28;13.00;99.90
17740;DHT22;8990;33.226;-97.150;2022-10-03T11:55:18;13.00;99.90
17740;DHT22;8990;33.226;-97.150;2022-10-03T11:57:57;13.00;99.90
17740;DHT22;8990;33.226;-97.150;2022-10-03T12:00:32;13.00;99.90
17740;DHT22;8990;33.226;-97.150;2022-10-03T12:03:20;13.00;99.90
17740;DHT22;8990;33.226;-97.150;2022-10-03T12:05:57;13.00;99.90
17740;DHT22;8990;33.226;-97.150;2022-10-03T12:08:43;13.00;99.90
17740;DHT22;8990;33.226;-97.150;2022-10-03T12:11:31;13.10;99.90
17740;DHT22;8990;33.226;-97.150;2022-10-03T12:14:12;13.00;99.90
17740;DHT22;8990;33.226;-97.150;2022-10-03T12:17:03;12.90;99.90
17740;DHT22;8990;33.226;-97.150;2022-10-03T12:19:37;13.00;99.90
17740;DHT22;8990;33.226;-97.150;2022-10-03T12:22:21;13.00;99.90
17740;DHT22;8990;33.226;-97.150;2022-10-03T12:25:01;12.90;99.90
17740;DHT22;8990;33.226;-97.150;2022-10-03T12:27:42;12.90;99.90
17740;DHT22;8990;33.226;-97.150;2022-10-03T12:30:17;12.80;99.90
17740;DHT22;8990;33.226;-97.150;2022-10-03T12:33:02;12.70;99.90
17740;DHT22;8990;33.226;-97.150;2022-10-03T12:35:41;12.80;99.90
17740;DHT22;8990;33.226;-97.150;2022-10-03T12:38:32;12.80;99.90
17740;DHT22;8990;33.226;-97.150;2022-10-03T12:41:18;12.80;99.90
17740;DHT22;8990;33.226;-97.150;2022-10-03T12:44:06;12.90;99.90
17740;DHT22;8990;33.226;-97.150;2022-10-03T12:46:45;12.90;99.90
17740;DHT22;8990;33.226;-97.150;2022-10-03T12:49:27;13.00;99.90
17740;DHT22;8990;33.226;-97.150;2022-10-03T12:52:07;13.00;99.90
17740;DHT22;8990;33.226;-97.150;2022-10-03T12:54:48;13.10;99.90
17740;DHT22;8990;33.226;-97.150;2022-10-03T12:57:44;13.10;99.90
17740;DHT22;8990;33.226;-97.150;2022-10-03T13:00:20;13.30;99.90
17740;DHT22;8990;33.226;-97.150;2022-10-03T13:03:14;13.30;99.90
17740;DHT22;8990;33.226;-97.150;2022-10-03T13:06:16;13.40;99.90
17740;DHT22;8990;33.226;-97.150;2022-10-03T13:09:05;13.60;99.90
17740;DHT22;8990;33.226;-97.150;2022-10-03T13:11:51;13.70;99.90
17740;DHT22;8990;33.226;-97.150;2022-10-03T13:17:19;14.00;99.90
17740;DHT22;8990;33.226;-97.150;2022-10-03T13:19:56;14.10;99.90
17740;DHT22;8990;33.226;-97.150;2022-10-03T13:22:33;14.20;99.90
17740;DHT22;8990;33.226;-97.150;2022-10-03T13:25:12;14.30;99.90
17740;DHT22;8990;33.226;-97.150;2022-10-03T13:27:48;14.50;99.90
17740;DHT22;8990;33.226;-97.150;2022-10-03T13:30:21;14.60;99.90
17740;DHT22;8990;33.226;-97.150;2022-10-03T13:32:56;14.80;99.90
17740;DHT22;8990;33.226;-97.150;2022-10-03T13:35:34;15.00;99.90
17740;DHT22;8990;33.226;-97.150;2022-10-03T13:41:28;15.30;99.90
17740;DHT22;8990;33.226;-97.150;2022-10-03T13:44:01;15.70;99.90
17740;DHT22;8990;33.226;-97.150;2022-10-03T13:46:42;15.90;99.90
17740;DHT22;8990;33.226;-97.150;2022-10-03T13:49:25;16.10;99.90
17740;DHT22;8990;33.226;-97.150;2022-10-03T13:52:01;16.30;99.90
17740;DHT22;8990;33.226;-97.150;2022-10-03T13:55:11;16.50;99.90
17740;DHT22;8990;33.226;-97.150;2022-10-03T13:57:53;16.70;99.90
17740;DHT22;8990;33.226;-97.150;2022-10-03T14:00:29;17.00;99.90
17740;DHT22;8990;33.226;-97.150;2022-10-03T14:03:13;17.10;99.90
17740;DHT22;8990;33.226;-97.150;2022-10-03T14:06:15;17.40;99.90
17740;DHT22;8990;33.226;-97.150;2022-10-03T14:11:48;17.80;99.90
17740;DHT22;8990;33.226;-97.150;2022-10-03T14:14:37;18.00;99.90
17740;DHT22;8990;33.226;-97.150;2022-10-03T14:17:14;18.20;99.90
17740;DHT22;8990;33.226;-97.150;2022-10-03T14:19:58;18.40;99.90
17740;DHT22;8990;33.226;-97.150;2022-10-03T14:22:46;18.60;99.90
17740;DHT22;8990;33.226;-97.150;2022-10-03T14:25:22;18.90;99.90
17740;DHT22;8990;33.226;-97.150;2022-10-03T14:27:53;19.00;99.90
17740;DHT22;8990;33.226;-97.150;2022-10-03T14:30:30;19.20;99.90
17740;DHT22;8990;33.226;-97.150;2022-10-03T14:33:13;19.40;99.90
17740;DHT22;8990;33.226;-97.150;2022-10-03T14:35:54;19.60;99.90
17740;DHT22;8990;33.226;-97.150;2022-10-03T14:38:38;19.80;99.90
17740;DHT22;8990;33.226;-97.150;2022-10-03T14:41:42;19.90;99.90
17740;DHT22;8990;33.226;-97.150;2022-10-03T14:44:18;20.20;99.90
17740;DHT22;8990;33.226;-97.150;2022-10-03T14:46:54;20.30;99.90
17740;DHT22;8990;33.226;-97.150;2022-10-03T14:49:26;20.50;99.90
17740;DHT22;8990;33.226;-97.150;2022-10-03T14:52:01;20.70;99.90
17740;DHT22;8990;33.226;-97.150;2022-10-03T14:54:34;21.00;99.90
17740;DHT22;8990;33.226;-97.150;2022-10-03T15:00:01;21.30;99.90
17740;DHT22;8990;33.226;-97.150;2022-10-03T15:02:33;21.50;99.90
17740;DHT22;8990;33.226;-97.150;2022-10-03T15:05:10;21.60;99.90
17740;DHT22;8990;33.226;-97.150;2022-10-03T15:07:43;21.70;99.90
17740;DHT22;8990;33.226;-97.150;2022-10-03T15:10:17;21.90;99.90
17740;DHT22;8990;33.226;-97.150;2022-10-03T15:12:51;22.10;99.90
17740;DHT22;8990;33.226;-97.150;2022-10-03T15:15:25;22.20;99.90
17740;DHT22;8990;33.226;-97.150;2022-10-03T15:17:58;22.30;99.90
17740;DHT22;8990;33.226;-97.150;2022-10-03T15:20:32;22.50;99.90
17740;DHT22;8990;33.226;-97.150;2022-10-03T15:23:05;22.60;99.90
17740;DHT22;8990;33.226;-97.150;2022-10-03T15:25:37;22.70;99.90
17740;DHT22;8990;33.226;-97.150;2022-10-03T15:28:10;22.80;99.90
17740;DHT22;8990;33.226;-97.150;2022-10-03T15:30:41;22.90;99.90
17740;DHT22;8990;33.226;-97.150;2022-10-03T15:33:15;23.10;99.90
17740;DHT22;8990;33.226;-97.150;2022-10-03T15:35:47;23.20;99.90
17740;DHT22;8990;33.226;-97.150;2022-10-03T15:38:22;23.30;99.90
17740;DHT22;8990;33.226;-97.150;2022-10-03T15:41:06;23.40;99.90
17740;DHT22;8990;33.226;-97.150;2022-10-03T15:43:42;23.60;99.90
17740;DHT22;8990;33.226;-97.150;2022-10-03T15:46:25;23.70;99.90
17740;DHT22;8990;33.226;-97.150;2022-10-03T15:48:59;23.80;99.90
17740;DHT22;8990;33.226;-97.150;2022-10-03T15:51:29;23.90;99.90
17740;DHT22;8990;33.226;-97.150;2022-10-03T15:54:01;24.00;99.90
17740;DHT22;8990;33.226;-97.150;2022-10-03T15:56:38;24.10;99.90
17740;DHT22;8990;33.226;-97.150;2022-10-03T15:59:18;24.10;99.90
17740;DHT22;8990;33.226;-97.150;2022-10-03T16:01:50;24.30;99.90
17740;DHT22;8990;33.226;-97.150;2022-10-03T16:04:24;24.40;99.90
17740;DHT22;8990;33.226;-97.150;2022-10-03T16:06:59;24.40;99.90
17740;DHT22;8990;33.226;-97.150;2022-10-03T16:09:37;24.50;99.90
17740;DHT22;8990;33.226;-97.150;2022-10-03T16:12:34;24.70;99.90
17740;DHT22;8990;33.226;-97.150;2022-10-03T16:15:16;24.80;99.90
17740;DHT22;8990;33.226;-97.150;2022-10-03T16:17:48;24.80;99.90
17740;DHT22;8990;33.226;-97.150;2022-10-03T16:20:22;24.90;99.90
17740;DHT22;8990;33.226;-97.150;2022-10-03T16:22:55;25.10;99.90
17740;DHT22;8990;33.226;-97.150;2022-10-03T16:25:26;25.20;99.90
17740;DHT22;8990;33.226;-97.150;2022-10-03T16:28:02;25.30;99.90
17740;DHT22;8990;33.226;-97.150;2022-10-03T16:30:35;25.30;99.90
17740;DHT22;8990;33.226;-97.150;2022-10-03T16:33:13;25.50;99.90
17740;DHT22;8990;33.226;-97.150;2022-10-03T16:35:47;25.50;99.90
17740;DHT22;8990;33.226;-97.150;2022-10-03T16:38:21;25.60;99.90
17740;DHT22;8990;33.226;-97.150;2022-10-03T16:40:54;25.70;99.90
17740;DHT22;8990;33.226;-97.150;2022-10-03T16:43:30;25.80;99.90
17740;DHT22;8990;33.226;-97.150;2022-10-03T16:46:03;25.90;99.90
17740;DHT22;8990;33.226;-97.150;2022-10-03T16:48:34;25.70;99.30
17740;DHT22;8990;33.226;-97.150;2022-10-03T16:51:23;25.90;99.90
17740;DHT22;8990;33.226;-97.150;2022-10-03T16:53:55;26.10;99.80
17740;DHT22;8990;33.226;-97.150;2022-10-03T16:56:26;26.20;98.80
17740;DHT22;8990;33.226;-97.150;2022-10-03T16:59:05;26.20;98.90
17740;DHT22;8990;33.226;-97.150;2022-10-03T17:01:41;26.40;98.80
17740;DHT22;8990;33.226;-97.150;2022-10-03T17:04:20;26.50;98.80
17740;DHT22;8990;33.226;-97.150;2022-10-03T17:06:54;26.50;98.80
17740;DHT22;8990;33.226;-97.150;2022-10-03T17:09:32;26.50;97.70
17740;DHT22;8990;33.226;-97.150;2022-10-03T17:12:17;26.60;97.60
17740;DHT22;8990;33.226;-97.150;2022-10-03T17:14:51;26.70;97.50
17740;DHT22;8990;33.226;-97.150;2022-10-03T17:17:28;26.80;97.40
17740;DHT22;8990;33.226;-97.150;2022-10-03T17:20:00;27.00;97.20
17740;DHT22;8990;33.226;-97.150;2022-10-03T17:22:36;27.00;96.20
17740;DHT22;8990;33.226;-97.150;2022-10-03T17:25:34;27.00;96.00
17740;DHT22;8990;33.226;-97.150;2022-10-03T17:28:08;27.00;95.70
17740;DHT22;8990;33.226;-97.150;2022-10-03T17:30:44;27.10;95.40
17740;DHT22;8990;33.226;-97.150;2022-10-03T17:33:20;27.20;95.50
17740;DHT22;8990;33.226;-97.150;2022-10-03T17:35:59;27.30;95.10
17740;DHT22;8990;33.226;-97.150;2022-10-03T17:38:32;27.30;95.00
17740;DHT22;8990;33.226;-97.150;2022-10-03T17:41:15;27.40;95.00
17740;DHT22;8990;33.226;-97.150;2022-10-03T17:43:57;27.40;94.80
17740;DHT22;8990;33.226;-97.150;2022-10-03T17:46:37;27.50;94.40
17740;DHT22;8990;33.226;-97.150;2022-10-03T17:49:21;27.60;94.70
17740;DHT22;8990;33.226;-97.150;2022-10-03T17:51:54;27.70;94.70
17740;DHT22;8990;33.226;-97.150;2022-10-03T17:54:27;27.60;94.20
17740;DHT22;8990;33.226;-97.150;2022-10-03T17:57:03;27.70;94.70
17740;DHT22;8990;33.226;-97.150;2022-10-03T17:59:41;27.80;94.40
17740;DHT22;8990;33.226;-97.150;2022-10-03T18:02:19;27.90;94.20
17740;DHT22;8990;33.226;-97.150;2022-10-03T18:04:54;27.90;93.90
17740;DHT22;8990;33.226;-97.150;2022-10-03T18:07:28;28.00;93.50
17740;DHT22;8990;33.226;-97.150;2022-10-03T18:09:58;28.10;93.20
17740;DHT22;8990;33.226;-97.150;2022-10-03T18:12:31;28.10;93.10
17740;DHT22;8990;33.226;-97.150;2022-10-03T18:15:41;28.10;93.00
17740;DHT22;8990;33.226;-97.150;2022-10-03T18:21:36;28.10;92.20
17740;DHT22;8990;33.226;-97.150;2022-10-03T18:24:17;28.20;92.50
17740;DHT22;8990;33.226;-97.150;2022-10-03T18:26:56;28.40;92.60
17740;DHT22;8990;33.226;-97.150;2022-10-03T18:29:31;28.30;92.30
17740;DHT22;8990;33.226;-97.150;2022-10-03T18:32:11;28.40;91.80
17740;DHT22;8990;33.226;-97.150;2022-10-03T18:34:45;28.30;91.30
17740;DHT22;8990;33.226;-97.150;2022-10-03T18:40:25;28.40;90.80
17740;DHT22;8990;33.226;-97.150;2022-10-03T18:42:56;28.40;91.40
17740;DHT22;8990;33.226;-97.150;2022-10-03T18:45:30;28.40;90.20
17740;DHT22;8990;33.226;-97.150;2022-10-03T18:48:08;28.50;87.50
17740;DHT22;8990;33.226;-97.150;2022-10-03T18:50:49;28.60;90.40
17740;DHT22;8990;33.226;-97.150;2022-10-03T18:53:27;28.30;90.40
17740;DHT22;8990;33.226;-97.150;2022-10-03T18:56:04;28.50;89.40
17740;DHT22;8990;33.226;-97.150;2022-10-03T18:58:36;28.60;90.20
17740;DHT22;8990;33.226;-97.150;2022-10-03T19:01:14;28.60;90.30
17740;DHT22;8990;33.226;-97.150;2022-10-03T19:03:48;28.50;89.60
17740;DHT22;8990;33.226;-97.150;2022-10-03T19:06:22;28.60;88.90
17740;DHT22;8990;33.226;-97.150;2022-10-03T19:08:54;28.70;86.10
17740;DHT22;8990;33.226;-97.150;2022-10-03T19:11:29;28.80;85.90
17740;DHT22;8990;33.226;-97.150;2022-10-03T19:14:03;28.80;86.50
17740;DHT22;8990;33.226;-97.150;2022-10-03T19:19:48;29.00;83.70
17740;DHT22;8990;33.226;-97.150;2022-10-03T19:22:24;29.00;83.60
17740;DHT22;8990;33.226;-97.150;2022-10-03T19:24:58;28.90;80.90
17740;DHT22;8990;33.226;-97.150;2022-10-03T19:27:44;28.90;81.40
17740;DHT22;8990;33.226;-97.150;2022-10-03T19:30:19;29.00;84.60
17740;DHT22;8990;33.226;-97.150;2022-10-03T19:32:55;29.00;85.20
17740;DHT22;8990;33.226;-97.150;2022-10-03T19:35:26;29.10;84.20
17740;DHT22;8990;33.226;-97.150;2022-10-03T19:38:01;29.10;84.80
17740;DHT22;8990;33.226;-97.150;2022-10-03T19:40:43;29.20;82.20
17740;DHT22;8990;33.226;-97.150;2022-10-03T19:43:35;29.30;83.40
17740;DHT22;8990;33.226;-97.150;2022-10-03T19:46:18;29.30;84.10
17740;DHT22;8990;33.226;-97.150;2022-10-03T19:49:00;29.30;83.80